createdAt,value
2016-10-10T13:46:39.117Z,1014.84
2016-10-10T13:47:39.106Z,1014.84
2016-10-10T13:48:39.101Z,1014.85
2016-10-10T13:49:39.248Z,1014.79
2016-10-10T13:50:39.483Z,1014.81
2016-10-10T13:51:39.029Z,1014.85
2016-10-10T13:52:38.980Z,1014.8
2016-10-10T13:53:39.137Z,1014.81
2016-10-10T13:54:38.939Z,1014.83
2016-10-10T13:55:38.929Z,1014.78
2016-10-10T13:56:38.881Z,1014.77
2016-10-10T14:01:25.418Z,1014.74
2016-10-10T14:02:25.130Z,1014.72
2016-10-10T14:03:25.089Z,1014.73
2016-10-10T14:04:31.333Z,1014.7
2016-10-10T14:05:25.089Z,1014.71
2016-10-10T14:06:25.022Z,1014.71
2016-10-10T14:07:25.001Z,1014.81
2016-10-10T14:08:25.012Z,1014.79
2016-10-10T14:09:24.970Z,1014.75
2016-10-10T14:10:25.007Z,1014.74
2016-10-10T14:11:24.889Z,1014.75
2016-10-10T14:13:33.411Z,1014.7
2016-10-10T14:14:33.382Z,1014.7
2016-10-10T14:15:33.379Z,1014.72
2016-10-10T14:16:33.301Z,1014.72
2016-10-10T14:17:33.304Z,1014.73
2016-10-10T14:19:33.263Z,1014.68
2016-10-10T14:20:33.630Z,1014.65
2016-10-10T14:21:33.179Z,1014.66
2016-10-10T14:22:33.819Z,1014.66
2016-10-10T14:23:33.167Z,1014.65
2016-10-10T14:24:33.118Z,1014.67
2016-10-10T14:25:33.129Z,1014.64
2016-10-10T14:26:33.048Z,1014.64
2016-10-10T14:27:33.027Z,1014.65
2016-10-10T14:28:33.017Z,1014.65
2016-10-10T14:29:33.030Z,1014.64
2016-10-10T14:30:32.956Z,1014.63
2016-10-10T14:31:32.929Z,1014.64
2016-10-10T14:32:33.387Z,1014.62
2016-10-10T14:33:32.894Z,1014.62
2016-10-10T14:37:04.990Z,1014.64
2016-10-10T14:38:04.439Z,1014.62
2016-10-10T14:39:04.604Z,1014.6
2016-10-10T14:43:36.346Z,1014.61
2016-10-10T14:44:36.339Z,1014.54
2016-10-10T14:45:36.357Z,1014.56
2016-10-10T14:46:36.307Z,1014.53
2016-10-10T14:47:36.271Z,1014.55
2016-10-10T14:48:36.326Z,1014.52
2016-10-10T14:49:45.257Z,1014.56
2016-10-10T14:50:45.134Z,1014.57
2016-10-10T14:51:45.125Z,1014.55
2016-10-10T14:52:45.087Z,1014.55
2016-10-10T14:53:45.053Z,1014.57
2016-10-10T14:54:45.268Z,1014.56
2016-10-10T14:55:45.046Z,1014.53
2016-10-10T14:56:44.975Z,1014.54
2016-10-10T14:57:45.533Z,1014.51
2016-10-10T14:58:44.923Z,1014.53
2016-10-10T14:59:44.911Z,1014.51
2016-10-10T15:00:44.919Z,1014.52
2016-10-10T15:01:44.984Z,1014.53
2016-10-10T15:02:44.849Z,1014.54
2016-10-10T15:03:44.933Z,1014.57
2016-10-10T15:04:44.789Z,1014.52
2016-10-10T15:06:45.193Z,1014.57
2016-10-10T15:07:44.711Z,1014.52
2016-10-10T15:08:45.105Z,1014.55
2016-10-10T15:09:44.650Z,1014.56
2016-10-10T15:10:44.913Z,1014.55
2016-10-10T15:11:44.694Z,1014.51
2016-10-10T15:12:44.879Z,1014.54
2016-10-10T15:14:44.547Z,1014.51
2016-10-10T15:16:44.590Z,1014.49
2016-10-10T15:17:44.509Z,1014.51
2016-10-10T15:18:44.445Z,1014.52
2016-10-10T15:19:44.426Z,1014.51
2016-10-10T15:20:44.538Z,1014.54
2016-10-10T15:21:44.402Z,1014.51
2016-10-10T15:22:44.320Z,1014.53
2016-10-10T15:23:44.415Z,1014.52
2016-10-10T15:25:44.351Z,1014.5
2016-10-10T15:26:44.293Z,1014.5
2016-10-10T15:27:44.212Z,1014.5
2016-10-10T15:29:44.524Z,1014.49
2016-10-10T15:30:44.576Z,1014.47
2016-10-10T15:31:44.123Z,1014.47
2016-10-10T15:32:44.171Z,1014.47
2016-10-10T15:33:44.262Z,1014.47
2016-10-10T15:34:44.312Z,1014.45
2016-10-10T15:35:44.001Z,1014.45
2016-10-10T15:36:43.994Z,1014.45
2016-10-10T15:37:43.952Z,1014.46
2016-10-10T15:38:44.160Z,1014.47
2016-10-10T15:39:43.914Z,1014.45
2016-10-10T15:40:43.995Z,1014.47
2016-10-10T15:41:43.879Z,1014.45
2016-10-10T15:42:43.824Z,1014.42
2016-10-10T15:43:43.806Z,1014.43
2016-10-10T15:44:43.803Z,1014.42
2016-10-10T15:45:43.763Z,1014.44
2016-10-10T15:47:02.980Z,1014.41
2016-10-10T15:47:43.711Z,1014.42
2016-10-10T15:48:43.775Z,1014.38
2016-10-10T15:49:43.660Z,1014.41
2016-10-10T15:50:43.640Z,1014.4
2016-10-10T15:51:43.637Z,1014.36
2016-10-10T15:52:43.584Z,1014.36
2016-10-10T15:53:43.669Z,1014.34
2016-10-10T15:54:43.637Z,1014.38
2016-10-10T15:55:43.552Z,1014.39
2016-10-10T15:56:43.483Z,1014.37
2016-10-10T15:57:43.599Z,1014.38
2016-10-10T15:58:43.421Z,1014.39
2016-10-10T16:07:39.069Z,1014.39
2016-10-10T16:08:39.591Z,1014.39
2016-10-10T16:09:39.071Z,1014.39
2016-10-10T16:17:11.519Z,1014.4
2016-10-10T16:18:11.503Z,1014.41
2016-10-10T16:19:11.450Z,1014.4
2016-10-10T16:26:43.954Z,1014.42
2016-10-10T16:27:43.923Z,1014.4
2016-10-10T16:28:43.900Z,1014.44
2016-10-10T16:29:43.913Z,1014.43
2016-10-10T16:31:43.880Z,1014.43
2016-10-10T16:33:43.766Z,1014.42
2016-10-10T16:34:43.891Z,1014.42
2016-10-10T16:35:43.716Z,1014.43
2016-10-10T16:36:43.698Z,1014.41
2016-10-10T16:37:43.725Z,1014.42
2016-10-10T16:38:43.810Z,1014.42
2016-10-10T16:39:43.732Z,1014.46
2016-10-10T16:40:43.626Z,1014.41
2016-10-10T16:41:43.704Z,1014.44
2016-10-10T16:42:43.557Z,1014.42
2016-10-10T16:43:43.808Z,1014.43
2016-10-10T16:45:43.538Z,1014.47
2016-10-10T16:46:43.829Z,1014.47
2016-10-10T16:47:43.422Z,1014.47
2016-10-10T16:48:43.458Z,1014.5
2016-10-10T16:49:43.380Z,1014.51
2016-10-10T16:50:43.355Z,1014.52
2016-10-10T16:51:43.344Z,1014.57
2016-10-10T16:52:43.372Z,1014.54
2016-10-10T16:53:43.342Z,1014.56
2016-10-10T16:54:43.261Z,1014.6
2016-10-10T16:55:43.358Z,1014.56
2016-10-10T16:56:43.209Z,1014.65
2016-10-10T16:57:43.190Z,1014.64
2016-10-10T16:58:43.207Z,1014.66
2016-10-10T16:59:43.129Z,1014.65
2016-10-10T17:03:06.243Z,1014.68
2016-10-10T17:05:06.191Z,1014.73
2016-10-10T17:07:06.121Z,1014.71
2016-10-10T17:10:29.227Z,1014.71
2016-10-10T17:12:29.403Z,1014.71
2016-10-10T17:13:29.131Z,1014.72
2016-10-10T17:14:30.501Z,1014.68
2016-10-10T17:15:29.800Z,1014.73
2016-10-10T17:16:29.091Z,1014.72
2016-10-10T17:17:29.022Z,1014.66
2016-10-10T17:18:28.984Z,1014.67
2016-10-10T17:19:29.535Z,1014.67
2016-10-10T17:20:28.986Z,1014.63
2016-10-10T17:21:29.137Z,1014.66
2016-10-10T17:22:28.946Z,1014.64
2016-10-10T17:23:29.269Z,1014.67
2016-10-10T17:24:28.829Z,1014.65
2016-10-10T17:25:28.816Z,1014.66
2016-10-10T17:26:28.874Z,1014.67
2016-10-10T17:27:28.758Z,1014.68
2016-10-10T17:28:28.762Z,1014.67
2016-10-10T17:29:28.914Z,1014.74
2016-10-10T17:30:28.684Z,1014.74
2016-10-10T17:31:28.665Z,1014.76
2016-10-10T17:32:28.643Z,1014.77
2016-10-10T17:33:29.032Z,1014.78
2016-10-10T17:34:28.666Z,1014.76
2016-10-10T17:35:29.053Z,1014.76
2016-10-10T17:36:29.648Z,1014.78
2016-10-10T17:37:28.609Z,1014.74
2016-10-10T17:38:28.987Z,1014.74
2016-10-10T17:39:28.448Z,1014.75
2016-10-10T17:40:28.678Z,1014.77
2016-10-10T17:41:28.478Z,1014.72
2016-10-10T17:42:28.368Z,1014.75
2016-10-10T17:43:28.351Z,1014.75
2016-10-10T17:44:28.355Z,1014.77
2016-10-10T17:45:28.315Z,1014.73
2016-10-10T17:46:28.333Z,1014.74
2016-10-10T17:47:28.252Z,1014.73
2016-10-10T17:48:28.247Z,1014.76
2016-10-10T17:49:28.229Z,1014.73
2016-10-10T17:50:28.482Z,1014.75
2016-10-10T17:51:28.208Z,1014.74
2016-10-10T17:52:28.127Z,1014.73
2016-10-10T17:53:28.129Z,1014.73
2016-10-10T17:54:28.432Z,1014.78
2016-10-10T17:55:28.053Z,1014.75
2016-10-10T17:56:28.082Z,1014.74
2016-10-10T17:57:27.997Z,1014.75
2016-10-10T17:58:27.972Z,1014.77
2016-10-10T17:59:27.986Z,1014.76
2016-10-10T18:00:28.084Z,1014.78
2016-10-10T18:01:27.981Z,1014.74
2016-10-10T18:02:27.947Z,1014.74
2016-10-10T18:03:27.858Z,1014.76
2016-10-10T18:04:27.905Z,1014.78
2016-10-10T18:06:27.848Z,1014.77
2016-10-10T18:07:27.759Z,1014.8
2016-10-10T18:08:27.720Z,1014.77
2016-10-10T18:09:27.703Z,1014.77
2016-10-10T18:10:27.696Z,1014.8
2016-10-10T18:11:27.677Z,1014.76
2016-10-10T18:12:27.635Z,1014.75
2016-10-10T18:13:27.607Z,1014.76
2016-10-10T18:14:27.858Z,1014.76
2016-10-10T18:15:27.759Z,1014.79
2016-10-10T18:16:27.772Z,1014.76
2016-10-10T18:17:27.637Z,1014.81
2016-10-10T18:18:27.661Z,1014.82
2016-10-10T18:19:27.638Z,1014.84
2016-10-10T18:20:27.494Z,1014.84
2016-10-10T18:21:27.439Z,1014.86
2016-10-10T18:23:27.363Z,1014.84
2016-10-10T18:24:27.349Z,1014.83
2016-10-10T18:25:27.317Z,1014.83
2016-10-10T18:26:27.289Z,1014.79
2016-10-10T18:28:27.228Z,1014.8
2016-10-10T18:30:27.256Z,1014.78
2016-10-10T18:31:27.258Z,1014.79
2016-10-10T18:32:27.129Z,1014.79
2016-10-10T18:33:27.180Z,1014.81
2016-10-10T18:34:27.104Z,1014.76
2016-10-10T18:35:27.077Z,1014.75
2016-10-10T18:37:27.029Z,1014.76
2016-10-10T18:38:26.990Z,1014.78
2016-10-10T18:39:27.033Z,1014.74
2016-10-10T18:40:26.965Z,1014.74
2016-10-10T18:41:26.924Z,1014.73
2016-10-10T18:43:26.864Z,1014.73
2016-10-10T18:44:26.893Z,1014.71
2016-10-10T18:45:26.818Z,1014.69
2016-10-10T18:46:26.893Z,1014.71
2016-10-10T18:47:26.784Z,1014.74
2016-10-10T18:48:26.736Z,1014.71
2016-10-10T18:50:26.696Z,1014.7
2016-10-10T18:51:26.664Z,1014.66
2016-10-10T18:52:26.635Z,1014.66
2016-10-10T18:53:26.640Z,1014.72
2016-10-10T18:54:26.587Z,1014.71
2016-10-10T18:55:26.562Z,1014.67
2016-10-10T18:56:26.539Z,1014.73
2016-10-10T18:57:26.508Z,1014.7
2016-10-10T18:58:26.485Z,1014.7
2016-10-10T18:59:26.462Z,1014.67
2016-10-10T19:00:26.477Z,1014.66
2016-10-10T19:01:26.411Z,1014.68
2016-10-10T19:02:26.361Z,1014.66
2016-10-10T19:03:26.375Z,1014.67
2016-10-10T19:04:26.317Z,1014.67
2016-10-10T19:05:26.313Z,1014.68
2016-10-10T19:06:26.279Z,1014.69
2016-10-10T19:07:26.246Z,1014.67
2016-10-10T19:08:26.218Z,1014.69
2016-10-10T19:09:26.272Z,1014.67
2016-10-10T19:10:26.186Z,1014.67
2016-10-10T19:11:26.146Z,1014.65
2016-10-10T19:12:26.141Z,1014.66
2016-10-10T19:13:26.093Z,1014.67
2016-10-10T19:14:26.133Z,1014.68
2016-10-10T19:15:26.111Z,1014.66
2016-10-10T19:16:26.023Z,1014.68
2016-10-10T19:17:26.011Z,1014.69
2016-10-10T19:18:26.228Z,1014.68
2016-10-10T19:19:25.945Z,1014.65
2016-10-10T19:20:26.162Z,1014.69
2016-10-10T19:21:25.910Z,1014.67
2016-10-10T19:23:25.942Z,1014.67
2016-10-10T19:24:25.919Z,1014.69
2016-10-10T19:25:25.813Z,1014.69
2016-10-10T19:26:25.790Z,1014.7
2016-10-10T19:27:25.752Z,1014.7
2016-10-10T19:28:25.784Z,1014.72
2016-10-10T19:29:25.745Z,1014.71
2016-10-10T19:30:25.694Z,1014.71
2016-10-10T19:31:25.666Z,1014.7
2016-10-10T19:33:25.981Z,1014.66
2016-10-10T19:34:25.649Z,1014.69
2016-10-10T19:37:57.167Z,1014.68
2016-10-10T19:38:57.127Z,1014.69
2016-10-10T19:39:57.120Z,1014.67
2016-10-10T19:40:57.101Z,1014.69
2016-10-10T19:41:57.058Z,1014.7
2016-10-10T19:42:57.085Z,1014.76
2016-10-10T19:46:20.127Z,1014.75
2016-10-10T19:47:20.111Z,1014.72
2016-10-10T19:48:20.341Z,1014.73
2016-10-10T19:49:20.067Z,1014.74
2016-10-10T19:50:20.102Z,1014.73
2016-10-10T19:51:22.196Z,1014.73
2016-10-10T19:52:20.841Z,1014.72
2016-10-10T19:53:20.038Z,1014.76
2016-10-10T19:54:19.995Z,1014.77
2016-10-10T19:58:06.202Z,1014.71
2016-10-10T19:59:06.213Z,1014.74
2016-10-10T20:00:06.172Z,1014.71
2016-10-10T20:01:06.199Z,1014.72
2016-10-10T20:02:06.082Z,1014.68
2016-10-10T20:03:06.050Z,1014.68
2016-10-10T20:04:06.057Z,1014.67
2016-10-10T20:07:29.106Z,1014.67
2016-10-10T20:08:29.090Z,1014.64
2016-10-10T20:09:29.694Z,1014.67
2016-10-10T20:10:29.404Z,1014.69
2016-10-10T20:11:29.011Z,1014.64
2016-10-10T20:12:28.975Z,1014.68
2016-10-10T20:13:29.183Z,1014.68
2016-10-10T20:14:29.098Z,1014.62
2016-10-10T20:15:28.938Z,1014.62
2016-10-10T20:16:28.856Z,1014.63
2016-10-10T20:17:28.913Z,1014.67
2016-10-10T20:18:28.814Z,1014.68
2016-10-10T20:19:28.795Z,1014.68
2016-10-10T20:20:29.078Z,1014.72
2016-10-10T20:21:28.763Z,1014.71
2016-10-10T20:23:28.694Z,1014.71
2016-10-10T20:25:28.649Z,1014.7
2016-10-10T20:26:28.618Z,1014.7
2016-10-10T20:27:29.254Z,1014.63
2016-10-10T20:28:28.668Z,1014.68
2016-10-10T20:29:28.554Z,1014.67
2016-10-10T20:30:28.604Z,1014.64
2016-10-10T20:31:28.479Z,1014.65
2016-10-10T20:32:28.472Z,1014.62
2016-10-10T20:33:28.509Z,1014.62
2016-10-10T20:34:28.408Z,1014.6
2016-10-10T20:35:28.425Z,1014.61
2016-10-10T20:36:28.397Z,1014.59
2016-10-10T20:37:28.321Z,1014.58
2016-10-10T20:38:28.304Z,1014.63
2016-10-10T20:39:28.374Z,1014.64
2016-10-10T20:43:14.558Z,1014.67
2016-10-10T20:44:14.527Z,1014.65
2016-10-10T20:45:14.566Z,1014.63
2016-10-10T20:47:14.490Z,1014.66
2016-10-10T20:48:14.461Z,1014.66
2016-10-10T20:49:14.435Z,1014.69
2016-10-10T20:51:14.379Z,1014.67
2016-10-10T20:52:14.383Z,1014.69
2016-10-10T20:53:14.308Z,1014.67
2016-10-10T20:54:14.290Z,1014.68
2016-10-10T20:55:14.312Z,1014.7
2016-10-10T20:56:14.243Z,1014.72
2016-10-10T20:57:14.217Z,1014.73
2016-10-10T20:58:14.187Z,1014.64
2016-10-10T20:59:14.168Z,1014.63
2016-10-10T21:00:14.201Z,1014.67
2016-10-10T21:01:20.861Z,1014.62
2016-10-10T21:02:14.089Z,1014.65
2016-10-10T21:03:14.461Z,1014.59
2016-10-10T21:04:14.133Z,1014.64
2016-10-10T21:05:14.060Z,1014.62
2016-10-10T21:06:13.989Z,1014.61
2016-10-10T21:07:13.964Z,1014.61
2016-10-10T21:08:13.948Z,1014.6
2016-10-10T21:09:13.903Z,1014.62
2016-10-10T21:10:13.943Z,1014.61
2016-10-10T21:11:13.869Z,1014.59
2016-10-10T21:13:30.836Z,1014.59
2016-10-10T21:14:30.833Z,1014.58
2016-10-10T21:15:30.845Z,1014.6
2016-10-10T21:16:30.788Z,1014.58
2016-10-10T21:17:30.737Z,1014.58
2016-10-10T21:18:30.756Z,1014.59
2016-10-10T21:19:30.680Z,1014.6
2016-10-10T21:21:30.744Z,1014.57
2016-10-10T21:22:30.623Z,1014.57
2016-10-10T21:23:30.582Z,1014.56
2016-10-10T21:24:30.560Z,1014.55
2016-10-10T21:25:30.540Z,1014.54
2016-10-10T21:26:30.879Z,1014.51
2016-10-10T21:27:30.492Z,1014.53
2016-10-10T21:29:38.949Z,1014.49
2016-10-10T21:30:38.924Z,1014.51
2016-10-10T21:33:02.397Z,1014.44
2016-10-10T21:34:02.019Z,1014.48
2016-10-10T21:35:01.979Z,1014.49
2016-10-10T21:36:01.955Z,1014.46
2016-10-10T21:37:02.006Z,1014.43
2016-10-10T21:38:01.902Z,1014.46
2016-10-10T21:39:01.890Z,1014.43
2016-10-10T21:40:01.862Z,1014.47
2016-10-10T21:41:01.842Z,1014.45
2016-10-10T21:42:01.859Z,1014.43
2016-10-10T21:43:01.781Z,1014.46
2016-10-10T21:44:01.773Z,1014.46
2016-10-10T21:45:01.743Z,1014.48
2016-10-10T21:46:01.699Z,1014.44
2016-10-10T21:47:01.679Z,1014.46
2016-10-10T21:48:01.650Z,1014.44
2016-10-10T21:49:01.626Z,1014.45
2016-10-10T21:50:01.592Z,1014.43
2016-10-10T21:51:01.617Z,1014.49
2016-10-10T21:52:01.532Z,1014.49
2016-10-10T21:53:01.609Z,1014.48
2016-10-10T21:54:01.508Z,1014.5
2016-10-10T21:55:01.477Z,1014.49
2016-10-10T21:57:01.409Z,1014.51
2016-10-10T21:58:01.390Z,1014.47
2016-10-10T22:00:01.342Z,1014.49
2016-10-10T22:01:01.318Z,1014.53
2016-10-10T22:02:01.299Z,1014.5
2016-10-10T22:03:01.267Z,1014.53
2016-10-10T22:04:01.557Z,1014.5
2016-10-10T22:05:01.465Z,1014.5
2016-10-10T22:07:01.171Z,1014.48
2016-10-10T22:08:01.177Z,1014.47
2016-10-10T22:09:01.604Z,1014.48
2016-10-10T22:10:01.084Z,1014.47
2016-10-10T22:11:01.122Z,1014.46
2016-10-10T22:12:01.045Z,1014.51
2016-10-10T22:13:01.009Z,1014.52
2016-10-10T22:15:00.962Z,1014.49
2016-10-10T22:17:00.914Z,1014.44
2016-10-10T22:18:00.903Z,1014.45
2016-10-10T22:19:00.879Z,1014.4
2016-10-10T22:20:00.852Z,1014.39
2016-10-10T22:21:00.819Z,1014.43
2016-10-10T22:22:00.840Z,1014.39
2016-10-10T22:23:00.765Z,1014.41
2016-10-10T22:24:00.734Z,1014.44
2016-10-10T22:25:00.862Z,1014.44
2016-10-10T22:26:00.741Z,1014.39
2016-10-10T22:27:00.660Z,1014.43
2016-10-10T22:28:01.250Z,1014.39
2016-10-10T22:29:00.622Z,1014.41
2016-10-10T22:30:00.619Z,1014.42
2016-10-10T22:31:00.583Z,1014.41
2016-10-10T22:33:00.529Z,1014.46
2016-10-10T22:35:00.962Z,1014.46
2016-10-10T22:36:00.454Z,1014.44
2016-10-10T22:37:00.474Z,1014.44
2016-10-10T22:38:00.427Z,1014.49
2016-10-10T22:39:00.491Z,1014.51
2016-10-10T22:40:00.506Z,1014.5
2016-10-10T22:41:00.316Z,1014.48
2016-10-10T22:42:00.319Z,1014.53
2016-10-10T22:43:00.356Z,1014.51
2016-10-10T22:44:00.329Z,1014.53
2016-10-10T22:45:00.417Z,1014.52
2016-10-10T22:46:00.432Z,1014.54
2016-10-10T22:47:00.283Z,1014.53
2016-10-10T22:49:00.445Z,1014.56
2016-10-10T22:51:00.182Z,1014.52
2016-10-10T22:52:00.182Z,1014.5
2016-10-10T22:53:00.127Z,1014.57
2016-10-10T22:54:00.125Z,1014.57
2016-10-10T22:55:00.134Z,1014.56
2016-10-10T22:56:00.169Z,1014.57
2016-10-10T22:57:00.014Z,1014.55
2016-10-10T22:57:59.965Z,1014.6
2016-10-10T22:59:59.926Z,1014.58
2016-10-10T23:00:59.828Z,1014.57
2016-10-10T23:01:59.846Z,1014.62
2016-10-10T23:02:59.821Z,1014.59
2016-10-10T23:03:59.758Z,1014.6
2016-10-10T23:04:59.885Z,1014.59
2016-10-10T23:05:59.913Z,1014.58
2016-10-10T23:07:00.035Z,1014.53
2016-10-10T23:07:59.710Z,1014.56
2016-10-10T23:08:59.665Z,1014.52
2016-10-10T23:10:00.005Z,1014.55
2016-10-10T23:10:59.687Z,1014.56
2016-10-10T23:11:59.590Z,1014.56
2016-10-10T23:12:59.921Z,1014.57
2016-10-10T23:13:59.604Z,1014.55
2016-10-10T23:14:59.557Z,1014.57
2016-10-10T23:16:00.094Z,1014.57
2016-10-10T23:16:59.470Z,1014.56
2016-10-10T23:17:59.454Z,1014.55
2016-10-10T23:18:59.400Z,1014.56
2016-10-10T23:19:59.430Z,1014.55
2016-10-10T23:21:59.329Z,1014.54
2016-10-10T23:22:59.381Z,1014.53
2016-10-10T23:23:59.330Z,1014.52
2016-10-10T23:24:59.212Z,1014.5
2016-10-10T23:25:59.265Z,1014.52
2016-10-10T23:26:59.211Z,1014.53
2016-10-10T23:27:59.175Z,1014.51
2016-10-10T23:28:59.193Z,1014.53
2016-10-10T23:29:59.182Z,1014.52
2016-10-10T23:30:59.130Z,1014.54
2016-10-10T23:31:59.099Z,1014.52
